EHEH/EIN METAR and TAF weather

Enter ICAO airport designator
Station Type Date Time Source
EHEH METAR 2022/07/01 01:12 UTC NOAA

EHEH 010112Z AUTO 22006KT 7000 BR SCT005 BKN006 BKN008 13/13 Q1015 YLO


Station Type Date Time Source
EHEH Decoded METAR 2022/07/01 01:12 UTC NOAA

Eindhoven, Netherlands (EHEH) 51-27N 005-25E 28M
Jun 30, 2022 - 09:12 PM EDT / 2022.07.01 0112 UTC
Wind: from the SW (220 degrees) at 7 MPH (6 KT):0
Visibility: 4 mile(s):0
Sky conditions: mostly cloudy
Weather: mist
Temperature: 55 F (13 C)
Dew Point: 55 F (13 C)
Relative Humidity: 100%
Pressure (altimeter): 29.97 in. Hg (1015 hPa)
ob: EHEH 010112Z AUTO 22006KT 7000 BR SCT005 BKN006 BKN008 13/13 Q1015 YLO
cycle: 1

Station Type Date Time Source
EHEH TAF 2022/07/01 23:00 UTC NOAA

TAF EHEH 302259Z 3023/0205 23008KT 8000 BKN020
TEMPO 3021/0107 SCT006 BKN010 PROB30
TEMPO 0102/0105 VRB02KT 1500 MIFG BR
BECMG 0108/0110 24010G20KT PROB40
TEMPO 0112/0119 SCT040CB BKN050
BECMG 0118/0120 20005KT

Example: see airport list